createdAt,value
2019-03-06T00:01:14.196Z,5.00
2019-03-06T00:03:44.596Z,5.06
2019-03-06T00:06:16.901Z,5.02
2019-03-06T00:08:47.602Z,5.04
2019-03-06T00:11:18.981Z,5.02
2019-03-06T00:13:49.798Z,5.02
2019-03-06T00:16:20.535Z,5.03
2019-03-06T00:18:51.467Z,5.07
2019-03-06T00:21:22.261Z,4.94
2019-03-06T00:23:53.057Z,4.96
2019-03-06T00:26:23.780Z,5.10
2019-03-06T00:28:54.631Z,5.05
2019-03-06T00:31:25.468Z,5.02
2019-03-06T00:33:55.940Z,4.92
2019-03-06T00:36:27.129Z,4.96
2019-03-06T00:38:57.980Z,4.92
2019-03-06T00:41:33.297Z,5.00
2019-03-06T00:44:04.457Z,4.92
2019-03-06T00:46:34.848Z,5.02
2019-03-06T00:49:05.606Z,4.99
2019-03-06T00:51:36.089Z,5.00
2019-03-06T00:54:06.777Z,5.08
2019-03-06T00:56:37.611Z,5.05
2019-03-06T00:59:08.378Z,5.05
2019-03-06T01:01:39.382Z,5.12
2019-03-06T01:04:10.130Z,5.14
2019-03-06T01:06:40.715Z,5.15
2019-03-06T01:09:12.093Z,5.18
2019-03-06T01:11:42.823Z,5.08
2019-03-06T01:14:14.068Z,5.04
2019-03-06T01:16:44.771Z,5.00
2019-03-06T01:19:15.434Z,4.95
2019-03-06T01:21:46.291Z,4.87
2019-03-06T01:24:17.027Z,4.89
2019-03-06T01:26:47.943Z,4.84
2019-03-06T01:29:18.812Z,4.80
2019-03-06T01:31:49.519Z,4.80
2019-03-06T01:34:21.890Z,4.82
2019-03-06T01:36:54.292Z,4.79
2019-03-06T01:39:29.614Z,4.77
2019-03-06T01:42:02.092Z,4.79
2019-03-06T01:44:37.548Z,4.78
2019-03-06T01:47:08.572Z,4.74
2019-03-06T01:49:39.318Z,4.70
2019-03-06T01:52:10.261Z,4.69
2019-03-06T01:54:40.781Z,4.70
2019-03-06T01:57:11.613Z,4.68
2019-03-06T01:59:42.342Z,4.64
2019-03-06T02:02:13.407Z,4.66
2019-03-06T02:04:44.233Z,4.66
2019-03-06T02:07:14.953Z,4.66
2019-03-06T02:09:46.099Z,4.63
2019-03-06T02:12:16.983Z,4.69
2019-03-06T02:14:47.815Z,4.61
2019-03-06T02:17:18.740Z,4.56
2019-03-06T02:19:49.954Z,4.60
2019-03-06T02:22:20.805Z,4.56
2019-03-06T02:24:51.279Z,4.53
2019-03-06T02:27:22.072Z,4.56
2019-03-06T02:29:52.574Z,4.56
2019-03-06T02:32:23.356Z,4.54
2019-03-06T02:34:54.169Z,4.59
2019-03-06T02:37:24.650Z,4.52
2019-03-06T02:39:55.415Z,4.56
2019-03-06T02:42:26.242Z,4.56
2019-03-06T02:44:56.907Z,4.46
2019-03-06T02:47:27.627Z,4.46
2019-03-06T02:49:58.346Z,4.53
2019-03-06T02:52:29.205Z,4.44
2019-03-06T02:55:00.524Z,4.50
2019-03-06T02:57:31.308Z,4.49
2019-03-06T03:00:03.743Z,4.42
2019-03-06T03:02:36.266Z,4.40
2019-03-06T03:05:11.265Z,4.36
2019-03-06T03:07:42.025Z,4.42
2019-03-06T03:10:13.164Z,4.38
2019-03-06T03:12:43.981Z,4.36
2019-03-06T03:15:14.838Z,4.34
2019-03-06T03:17:45.655Z,4.36
2019-03-06T03:20:16.776Z,4.40
2019-03-06T03:22:47.521Z,4.35
2019-03-06T03:25:18.279Z,4.36
2019-03-06T03:27:49.346Z,4.39
2019-03-06T03:30:20.036Z,4.32
2019-03-06T03:32:50.876Z,4.38
2019-03-06T03:35:21.706Z,4.34
2019-03-06T03:37:52.155Z,4.36
2019-03-06T03:40:23.097Z,4.37
2019-03-06T03:42:54.136Z,4.32
2019-03-06T03:45:24.873Z,4.35
2019-03-06T03:47:55.721Z,4.35
2019-03-06T03:50:26.981Z,4.34
2019-03-06T03:52:57.420Z,4.39
2019-03-06T03:55:27.881Z,4.32
2019-03-06T03:57:58.637Z,4.34
2019-03-06T04:00:29.112Z,4.32
2019-03-06T04:03:00.335Z,4.30
2019-03-06T04:05:31.165Z,4.31
2019-03-06T04:08:01.874Z,4.28
2019-03-06T04:10:32.336Z,4.28
2019-03-06T04:13:03.064Z,4.30
2019-03-06T04:15:33.957Z,4.28
2019-03-06T04:18:04.354Z,4.28
2019-03-06T04:20:35.191Z,4.24
2019-03-06T04:23:06.103Z,4.24
2019-03-06T04:25:37.331Z,4.20
2019-03-06T04:28:08.226Z,4.22
2019-03-06T04:30:39.010Z,4.21
2019-03-06T04:33:09.474Z,4.14
2019-03-06T04:35:39.976Z,4.14
2019-03-06T04:38:10.800Z,4.18
2019-03-06T04:40:41.637Z,4.16
2019-03-06T04:43:12.511Z,4.18
2019-03-06T04:45:43.317Z,4.14
2019-03-06T04:48:14.012Z,4.13
2019-03-06T04:50:44.753Z,4.11
2019-03-06T04:53:15.172Z,4.12
2019-03-06T04:55:46.051Z,4.11
2019-03-06T04:58:16.979Z,4.10
2019-03-06T05:00:47.846Z,4.05
2019-03-06T05:03:18.821Z,4.05
2019-03-06T05:05:49.696Z,4.02
2019-03-06T05:08:20.519Z,4.04
2019-03-06T05:10:51.350Z,4.02
2019-03-06T05:13:22.110Z,3.98
2019-03-06T05:15:52.941Z,3.97
2019-03-06T05:18:25.415Z,3.99
2019-03-06T05:20:56.286Z,3.94
2019-03-06T05:23:26.705Z,3.94
2019-03-06T05:25:57.518Z,3.93
2019-03-06T05:28:28.319Z,3.96
2019-03-06T05:31:05.542Z,3.96
2019-03-06T05:33:36.303Z,3.91
2019-03-06T05:36:16.209Z,3.88
2019-03-06T05:39:05.319Z,3.87
2019-03-06T05:41:36.548Z,3.88
2019-03-06T05:44:07.367Z,3.90
2019-03-06T05:46:38.181Z,3.90
2019-03-06T05:49:09.464Z,3.89
2019-03-06T05:51:41.558Z,3.98
2019-03-06T05:54:12.567Z,3.91
2019-03-06T05:56:48.462Z,3.91
2019-03-06T05:59:19.549Z,3.88
2019-03-06T06:01:50.333Z,3.92
2019-03-06T06:04:21.524Z,3.88
2019-03-06T06:06:52.359Z,3.91
2019-03-06T06:09:23.095Z,3.84
2019-03-06T06:11:53.823Z,3.90
2019-03-06T06:14:24.605Z,3.88
2019-03-06T06:16:55.670Z,3.86
2019-03-06T06:19:26.640Z,3.90
2019-03-06T06:21:58.732Z,3.93
2019-03-06T06:24:29.542Z,3.92
2019-03-06T06:27:00.031Z,3.90
2019-03-06T06:29:31.139Z,4.04
2019-03-06T06:32:02.674Z,4.00
2019-03-06T06:34:33.500Z,3.98
2019-03-06T06:37:04.361Z,4.02
2019-03-06T06:39:35.281Z,4.03
2019-03-06T06:42:06.110Z,4.07
2019-03-06T06:44:36.837Z,4.08
2019-03-06T06:47:07.577Z,4.12
2019-03-06T06:49:38.094Z,4.14
2019-03-06T06:52:20.729Z,4.15
2019-03-06T06:55:09.704Z,4.14
2019-03-06T06:57:52.636Z,4.11
2019-03-06T07:00:51.813Z,4.19
2019-03-06T07:03:38.344Z,4.14
2019-03-06T07:06:13.397Z,4.28
2019-03-06T07:08:51.902Z,4.28
2019-03-06T07:11:35.936Z,4.18
2019-03-06T07:14:20.205Z,4.28
2019-03-06T07:16:52.666Z,4.30
2019-03-06T07:19:37.254Z,4.32
2019-03-06T07:22:10.391Z,4.36
2019-03-06T07:24:51.695Z,4.35
2019-03-06T07:27:30.011Z,4.38
2019-03-06T07:30:08.710Z,4.40
2019-03-06T07:32:46.811Z,4.40
2019-03-06T07:35:51.127Z,4.44
2019-03-06T07:38:22.004Z,4.52
2019-03-06T07:40:56.772Z,4.50
2019-03-06T07:43:29.179Z,4.64
2019-03-06T07:46:01.309Z,4.62
2019-03-06T07:48:33.800Z,4.67
2019-03-06T07:51:24.335Z,4.72
2019-03-06T07:54:01.895Z,4.77
2019-03-06T07:56:34.377Z,4.94
2019-03-06T07:59:05.417Z,4.82
2019-03-06T08:01:45.077Z,4.89
2019-03-06T08:04:16.629Z,4.86
2019-03-06T08:06:48.746Z,4.96
2019-03-06T08:09:21.159Z,4.96
2019-03-06T08:11:53.731Z,5.06
2019-03-06T08:14:42.162Z,5.10
2019-03-06T08:17:26.674Z,5.10
2019-03-06T08:20:11.208Z,5.12
2019-03-06T08:22:59.858Z,5.28
2019-03-06T08:25:35.295Z,5.22
2019-03-06T08:28:06.031Z,5.29
2019-03-06T08:30:38.410Z,5.39
2019-03-06T08:33:17.982Z,5.47
2019-03-06T08:35:41.721Z,5.52
2019-03-06T08:38:12.587Z,5.61
2019-03-06T08:40:43.521Z,5.69
2019-03-06T08:43:14.317Z,5.88
2019-03-06T08:46:02.998Z,5.99
2019-03-06T08:48:38.036Z,6.23
2019-03-06T08:51:13.372Z,6.28
2019-03-06T08:53:51.909Z,6.38
2019-03-06T08:56:38.957Z,6.47
2019-03-06T08:59:19.977Z,6.59
2019-03-06T09:02:00.989Z,6.71
2019-03-06T09:04:45.238Z,6.68
2019-03-06T09:07:18.081Z,6.60
2019-03-06T09:09:56.286Z,6.64
2019-03-06T09:12:40.430Z,6.72
2019-03-06T09:15:15.470Z,6.74
2019-03-06T09:17:47.844Z,6.78
2019-03-06T09:20:40.738Z,6.84
2019-03-06T09:23:23.137Z,6.91
2019-03-06T09:25:56.302Z,6.93
2019-03-06T09:28:44.063Z,7.08
2019-03-06T09:31:25.266Z,7.13
2019-03-06T09:34:00.363Z,7.16
2019-03-06T09:36:33.077Z,7.25
2019-03-06T09:39:07.152Z,7.26
2019-03-06T09:41:39.624Z,7.40
2019-03-06T09:44:12.017Z,7.44
2019-03-06T09:46:47.693Z,7.55
2019-03-06T09:49:26.076Z,7.60
2019-03-06T09:52:04.486Z,7.67
2019-03-06T09:54:55.141Z,7.78
2019-03-06T09:57:27.962Z,7.88
2019-03-06T10:00:00.451Z,7.91
2019-03-06T10:02:47.867Z,7.97
2019-03-06T10:05:26.092Z,7.99
2019-03-06T10:08:00.883Z,8.00
2019-03-06T10:10:36.256Z,8.13
2019-03-06T10:13:17.629Z,8.17
2019-03-06T10:15:50.100Z,8.26
2019-03-06T10:18:26.848Z,8.36
2019-03-06T10:20:58.116Z,8.38
2019-03-06T10:23:29.069Z,8.37
2019-03-06T10:25:59.553Z,8.52
2019-03-06T10:28:30.433Z,8.64
2019-03-06T10:31:02.698Z,8.66
2019-03-06T10:33:33.642Z,8.74
2019-03-06T10:36:05.359Z,8.80
2019-03-06T10:38:35.737Z,8.85
2019-03-06T10:41:06.555Z,8.90
2019-03-06T10:43:37.404Z,8.98
2019-03-06T10:46:09.533Z,9.03
2019-03-06T10:48:40.397Z,9.11
2019-03-06T10:51:11.392Z,9.16
2019-03-06T10:53:42.271Z,9.40
2019-03-06T10:56:14.451Z,9.48
2019-03-06T10:58:45.283Z,9.49
2019-03-06T11:01:17.370Z,9.58
2019-03-06T11:03:52.386Z,9.64
2019-03-06T11:06:22.886Z,9.79
2019-03-06T11:08:53.745Z,9.80
2019-03-06T11:11:24.389Z,9.85
2019-03-06T11:13:55.265Z,9.84
2019-03-06T11:16:26.063Z,9.82
2019-03-06T11:18:57.407Z,9.94
2019-03-06T11:21:28.438Z,9.85
2019-03-06T11:23:59.172Z,9.91
2019-03-06T11:26:30.535Z,9.98
2019-03-06T11:29:01.467Z,10.02
2019-03-06T11:31:33.334Z,10.20
2019-03-06T11:34:04.556Z,10.14
2019-03-06T11:36:35.456Z,10.26
2019-03-06T11:39:09.162Z,10.40
2019-03-06T11:41:40.284Z,10.36
2019-03-06T11:44:11.002Z,10.43
2019-03-06T11:46:41.837Z,10.44
2019-03-06T11:49:12.579Z,10.43
2019-03-06T11:51:43.398Z,10.40
2019-03-06T11:54:14.543Z,10.38
2019-03-06T11:56:45.376Z,10.55
2019-03-06T11:59:15.821Z,10.61
2019-03-06T12:01:48.457Z,10.60
2019-03-06T12:04:19.303Z,10.58
2019-03-06T12:06:50.198Z,10.59
2019-03-06T12:09:26.058Z,10.62
2019-03-06T12:11:57.054Z,10.64
2019-03-06T12:14:27.563Z,10.56
2019-03-06T12:16:58.008Z,10.46
2019-03-06T12:19:28.511Z,10.51
2019-03-06T12:21:59.494Z,10.47
2019-03-06T12:24:30.317Z,10.70
2019-03-06T12:27:01.358Z,10.58
2019-03-06T12:29:32.311Z,10.70
2019-03-06T12:32:03.849Z,10.63
2019-03-06T12:34:34.433Z,10.70
2019-03-06T12:37:05.225Z,10.78
2019-03-06T12:39:36.155Z,10.70
2019-03-06T12:42:13.918Z,10.73
2019-03-06T12:44:39.672Z,10.82
2019-03-06T12:47:10.976Z,10.88
2019-03-06T12:49:42.067Z,10.97
2019-03-06T12:52:12.951Z,11.02
2019-03-06T12:54:43.637Z,11.09
2019-03-06T12:57:14.890Z,11.20
2019-03-06T12:59:45.720Z,11.15
2019-03-06T13:02:16.441Z,11.08
2019-03-06T13:04:47.194Z,11.08
2019-03-06T13:07:18.219Z,11.13
2019-03-06T13:09:49.473Z,11.14
2019-03-06T13:12:20.298Z,11.11
2019-03-06T13:14:51.143Z,11.15
2019-03-06T13:17:22.418Z,11.29
2019-03-06T13:19:53.247Z,11.32
2019-03-06T13:22:24.108Z,11.30
2019-03-06T13:24:54.909Z,11.35
2019-03-06T13:27:25.641Z,11.33
2019-03-06T13:29:56.140Z,11.30
2019-03-06T13:32:28.547Z,11.35
2019-03-06T13:34:59.876Z,11.43
2019-03-06T13:37:30.771Z,11.58
2019-03-06T13:40:03.311Z,11.55
2019-03-06T13:42:34.138Z,11.64
2019-03-06T13:45:07.045Z,11.62
2019-03-06T13:47:38.068Z,11.64
2019-03-06T13:50:12.724Z,11.70
2019-03-06T13:52:43.645Z,11.68
2019-03-06T13:55:16.315Z,11.72
2019-03-06T13:57:47.605Z,11.80
2019-03-06T14:00:19.915Z,11.76
2019-03-06T14:02:54.464Z,11.80
2019-03-06T14:05:25.680Z,11.85
2019-03-06T14:07:57.025Z,11.91
2019-03-06T14:10:28.101Z,11.88
2019-03-06T14:12:58.921Z,11.88
2019-03-06T14:15:29.766Z,11.96
2019-03-06T14:18:00.909Z,11.88
2019-03-06T14:20:33.307Z,11.81
2019-03-06T14:23:04.732Z,11.86
2019-03-06T14:25:35.671Z,11.78
2019-03-06T14:28:06.503Z,11.88
2019-03-06T14:30:39.328Z,11.93
2019-03-06T14:33:15.083Z,11.90
2019-03-06T14:35:44.384Z,11.86
2019-03-06T14:38:15.852Z,11.84
2019-03-06T14:40:48.429Z,11.93
2019-03-06T14:43:20.826Z,11.97
2019-03-06T14:45:55.059Z,12.02
2019-03-06T14:48:28.544Z,11.97
2019-03-06T14:51:02.718Z,11.96
2019-03-06T14:53:36.305Z,11.90
2019-03-06T14:56:07.104Z,11.94
2019-03-06T14:58:37.936Z,11.74
2019-03-06T15:01:08.786Z,11.79
2019-03-06T15:03:39.503Z,11.63
2019-03-06T15:06:10.341Z,11.70
2019-03-06T15:08:41.076Z,11.63
2019-03-06T15:11:12.006Z,11.66
2019-03-06T15:13:43.068Z,11.56
2019-03-06T15:16:14.163Z,11.58
2019-03-06T15:18:44.986Z,11.60
2019-03-06T15:21:15.814Z,11.61
2019-03-06T15:23:46.619Z,11.65
2019-03-06T15:26:17.655Z,11.62
2019-03-06T15:28:48.417Z,11.54
2019-03-06T15:31:19.325Z,11.54
2019-03-06T15:33:50.191Z,11.56
2019-03-06T15:36:21.057Z,11.56
2019-03-06T15:38:51.963Z,11.51
2019-03-06T15:41:22.774Z,11.54
2019-03-06T15:43:54.646Z,11.45
2019-03-06T15:46:26.900Z,11.51
2019-03-06T15:48:57.887Z,11.41
2019-03-06T15:51:28.814Z,11.45
2019-03-06T15:54:00.148Z,11.32
2019-03-06T15:56:30.996Z,11.36
2019-03-06T15:59:01.760Z,11.22
2019-03-06T16:01:34.179Z,11.23
2019-03-06T16:04:06.880Z,11.20
2019-03-06T16:06:37.699Z,11.33
2019-03-06T16:09:09.293Z,11.24
2019-03-06T16:11:40.568Z,11.25
2019-03-06T16:14:11.900Z,11.21
2019-03-06T16:16:45.206Z,11.18
2019-03-06T16:19:19.202Z,11.17
2019-03-06T16:21:50.370Z,11.10
2019-03-06T16:24:21.828Z,11.20
2019-03-06T16:26:53.021Z,11.08
2019-03-06T16:29:23.896Z,11.07
2019-03-06T16:31:54.888Z,11.06
2019-03-06T16:34:25.706Z,10.96
2019-03-06T16:36:56.542Z,11.00
2019-03-06T16:39:27.734Z,10.97
2019-03-06T16:41:58.287Z,10.98
2019-03-06T16:44:29.083Z,11.08
2019-03-06T16:47:06.449Z,10.99
2019-03-06T16:49:32.381Z,10.95
2019-03-06T16:52:03.878Z,10.94
2019-03-06T16:54:34.822Z,10.98
2019-03-06T16:57:05.692Z,10.94
2019-03-06T16:59:36.537Z,10.83
2019-03-06T17:02:07.142Z,10.78
2019-03-06T17:04:38.988Z,10.74
2019-03-06T17:07:09.518Z,10.78
2019-03-06T17:09:40.384Z,10.77
2019-03-06T17:12:11.607Z,10.73
2019-03-06T17:14:42.526Z,10.69
2019-03-06T17:17:13.542Z,10.69
2019-03-06T17:19:44.498Z,10.69
2019-03-06T17:22:15.716Z,10.75
2019-03-06T17:24:46.575Z,10.78
2019-03-06T17:27:17.522Z,10.66
2019-03-06T17:29:48.348Z,10.66
2019-03-06T17:32:19.190Z,10.64
2019-03-06T17:34:50.310Z,10.64
2019-03-06T17:37:21.601Z,10.62
2019-03-06T17:39:52.151Z,10.63
2019-03-06T17:42:23.126Z,10.62
2019-03-06T17:44:54.317Z,10.58
2019-03-06T17:47:25.021Z,10.63
2019-03-06T17:49:56.045Z,10.54
2019-03-06T17:52:27.169Z,10.57
2019-03-06T17:54:58.245Z,10.57
2019-03-06T17:57:29.181Z,10.52
2019-03-06T17:59:59.669Z,10.55
2019-03-06T18:02:30.260Z,10.48
2019-03-06T18:05:01.076Z,10.44
2019-03-06T18:07:31.954Z,10.41
2019-03-06T18:10:02.872Z,10.52
2019-03-06T18:12:33.688Z,10.40
2019-03-06T18:15:07.410Z,10.40
2019-03-06T18:17:37.940Z,10.42
2019-03-06T18:20:11.931Z,10.33
2019-03-06T18:22:42.756Z,10.38
2019-03-06T18:25:16.280Z,10.34
2019-03-06T18:27:47.591Z,10.44
2019-03-06T18:30:19.522Z,10.36
2019-03-06T18:32:50.694Z,10.45
2019-03-06T18:35:22.696Z,10.30
2019-03-06T18:37:53.623Z,10.36
2019-03-06T18:40:31.306Z,10.28
2019-03-06T18:43:02.082Z,10.20
2019-03-06T18:45:32.952Z,10.26
2019-03-06T18:48:03.842Z,10.28
2019-03-06T18:50:34.708Z,10.32
2019-03-06T18:53:11.414Z,10.30
2019-03-06T18:55:42.661Z,10.36
2019-03-06T18:58:14.222Z,10.26
2019-03-06T19:00:46.518Z,10.28
2019-03-06T19:03:17.093Z,10.38
2019-03-06T19:05:48.108Z,10.32
2019-03-06T19:08:19.375Z,10.27
2019-03-06T19:10:50.375Z,10.21
2019-03-06T19:13:22.728Z,10.16
2019-03-06T19:15:53.913Z,10.24
2019-03-06T19:18:24.942Z,10.27
2019-03-06T19:20:56.471Z,10.25
2019-03-06T19:23:27.343Z,10.17
2019-03-06T19:25:58.447Z,10.26
2019-03-06T19:28:29.306Z,10.28
2019-03-06T19:31:00.126Z,10.18
2019-03-06T19:33:31.290Z,10.21
2019-03-06T19:36:09.427Z,10.16
2019-03-06T19:38:39.966Z,10.16
2019-03-06T19:41:11.056Z,10.28
2019-03-06T19:43:42.092Z,10.19
2019-03-06T19:46:14.660Z,10.24
2019-03-06T19:48:45.549Z,10.28
2019-03-06T19:51:16.431Z,10.24
2019-03-06T19:53:48.427Z,10.22
2019-03-06T19:56:19.375Z,10.20
2019-03-06T19:58:50.280Z,10.25
2019-03-06T20:01:21.138Z,10.17
2019-03-06T20:03:52.181Z,10.29
2019-03-06T20:06:26.960Z,10.20
2019-03-06T20:08:58.760Z,10.32
2019-03-06T20:11:58.509Z,10.24
2019-03-06T20:14:18.132Z,10.18
2019-03-06T20:16:48.999Z,10.29
2019-03-06T20:19:19.819Z,10.22
2019-03-06T20:21:50.738Z,10.26
2019-03-06T20:24:21.713Z,10.26
2019-03-06T20:26:52.533Z,10.19
2019-03-06T20:29:23.503Z,10.14
2019-03-06T20:31:53.963Z,10.27
2019-03-06T20:34:24.772Z,10.20
2019-03-06T20:36:55.689Z,10.30
2019-03-06T20:39:26.201Z,10.26
2019-03-06T20:41:57.043Z,10.30
2019-03-06T20:44:32.268Z,10.27
2019-03-06T20:47:03.155Z,10.24
2019-03-06T20:49:34.154Z,10.24
2019-03-06T20:52:05.205Z,10.23
2019-03-06T20:54:36.056Z,10.26
2019-03-06T20:57:06.984Z,10.20
2019-03-06T20:59:37.812Z,10.20
2019-03-06T21:02:08.642Z,10.15
2019-03-06T21:04:39.613Z,10.16
2019-03-06T21:07:10.585Z,10.19
2019-03-06T21:09:41.544Z,10.06
2019-03-06T21:12:12.408Z,10.07
2019-03-06T21:14:46.014Z,10.11
2019-03-06T21:17:16.941Z,10.08
2019-03-06T21:19:48.214Z,10.08
2019-03-06T21:22:19.022Z,10.08
2019-03-06T21:24:50.011Z,10.05
2019-03-06T21:27:20.960Z,10.12
2019-03-06T21:29:51.747Z,10.09
2019-03-06T21:32:23.590Z,10.12
2019-03-06T21:34:54.499Z,10.10
2019-03-06T21:37:25.382Z,10.10
2019-03-06T21:39:57.332Z,10.14
2019-03-06T21:42:27.801Z,10.13
2019-03-06T21:44:58.756Z,10.14
2019-03-06T21:47:31.383Z,10.09
2019-03-06T21:50:02.322Z,10.12
2019-03-06T21:52:33.185Z,10.12
2019-03-06T21:55:04.715Z,10.12
2019-03-06T21:57:35.576Z,10.16
2019-03-06T22:00:09.319Z,10.10
2019-03-06T22:02:40.195Z,10.16
2019-03-06T22:05:10.706Z,10.10
2019-03-06T22:07:41.559Z,10.06
2019-03-06T22:10:15.468Z,10.11
2019-03-06T22:12:46.383Z,10.13
2019-03-06T22:15:18.571Z,10.07
2019-03-06T22:17:49.507Z,10.06
2019-03-06T22:20:19.944Z,10.00
2019-03-06T22:22:50.722Z,10.08
2019-03-06T22:25:21.611Z,10.06
2019-03-06T22:27:52.497Z,9.99
2019-03-06T22:30:24.409Z,10.08
2019-03-06T22:32:55.253Z,10.10
2019-03-06T22:35:26.087Z,10.08
2019-03-06T22:37:57.466Z,10.10
2019-03-06T22:40:28.614Z,10.11
2019-03-06T22:42:59.525Z,10.13
2019-03-06T22:45:29.979Z,10.08
2019-03-06T22:48:00.825Z,10.11
2019-03-06T22:50:31.361Z,10.08
2019-03-06T22:53:02.293Z,10.04
2019-03-06T22:55:33.235Z,10.12
2019-03-06T22:58:04.182Z,10.14
2019-03-06T23:00:45.413Z,10.12
2019-03-06T23:03:18.620Z,10.18
2019-03-06T23:05:50.975Z,10.16
2019-03-06T23:08:23.455Z,10.12
2019-03-06T23:10:57.057Z,10.14
2019-03-06T23:13:28.200Z,10.12
2019-03-06T23:15:59.036Z,10.12
2019-03-06T23:18:29.874Z,10.16
2019-03-06T23:21:00.709Z,10.20
2019-03-06T23:23:31.649Z,10.16
2019-03-06T23:26:02.481Z,10.19
2019-03-06T23:28:33.319Z,10.16
2019-03-06T23:31:04.324Z,10.13
2019-03-06T23:33:35.093Z,10.12
2019-03-06T23:36:05.920Z,10.18
2019-03-06T23:38:38.430Z,10.17
2019-03-06T23:41:10.947Z,10.20
2019-03-06T23:43:41.823Z,10.18
2019-03-06T23:46:14.329Z,10.17
2019-03-06T23:48:45.304Z,10.15
2019-03-06T23:51:18.009Z,10.18
2019-03-06T23:53:52.863Z,10.17
2019-03-06T23:56:23.689Z,10.14
2019-03-06T23:58:54.621Z,10.18
